Time;durP1;ratioP1;P1;durP2;ratioP2;P2;SDS_P1;SDS_P2;PMS_P1;PMS_P2;Temp;Humidity;BMP_temperature;BMP_pressure;BME280_temperature;BME280_humidity;BME280_pressure;Samples;Min_cycle;Max_cycle;Signal;HPM_P1;HPM_P2
2022/06/05 00:02:03;;;;;;;7.90;3.90;;;;;;;21.29;55.17;100818.89;107238;1251;60530;-75
2022/06/05 00:04:42;;;;;;;5.10;3.90;;;;;;;21.27;56.39;100813.77;107277;1249;74199;-72
2022/06/05 00:07:36;;;;;;;6.20;3.70;;;;;;;21.27;56.48;100809.39;107208;1252;71853;-76
2022/06/05 00:10:17;;;;;;;7.20;3.80;;;;;;;21.26;55.49;100804.33;107536;1251;71164;-74
2022/06/05 00:12:57;;;;;;;7.20;4.30;;;;;;;21.28;54.68;100800.75;107891;1251;62883;-73
2022/06/05 00:15:27;;;;;;;6.40;3.90;;;;;;;21.33;55.16;100803.77;108304;1249;61348;-73
2022/06/05 00:17:56;;;;;;;5.50;3.70;;;;;;;21.33;55.96;100801.95;107671;1249;60908;-76
2022/06/05 00:20:26;;;;;;;5.80;3.80;;;;;;;21.30;55.25;100798.23;107044;1252;65195;-77
2022/06/05 00:22:55;;;;;;;7.00;3.50;;;;;;;21.29;54.77;100795.77;107165;1249;70222;-76
2022/06/05 00:25:46;;;;;;;5.60;3.70;;;;;;;21.29;54.66;100793.80;107086;1249;69071;-76
2022/06/05 00:28:53;;;;;;;5.40;4.50;;;;;;;21.27;55.93;100797.33;107111;1250;63606;-75
2022/06/05 00:31:28;;;;;;;9.30;4.70;;;;;;;21.24;55.92;100802.99;107142;1250;60539;-76
2022/06/05 00:33:57;;;;;;;10.10;4.20;;;;;;;21.21;55.05;100801.81;107202;1251;60856;-76
2022/06/05 00:36:38;;;;;;;5.90;4.10;;;;;;;21.20;55.34;100802.21;107285;1250;63442;-77
2022/06/05 00:39:15;;;;;;;10.90;4.90;;;;;;;21.19;56.00;100793.50;107232;1250;72229;-75
2022/06/05 00:42:05;;;;;;;5.70;3.70;;;;;;;21.18;56.32;100788.14;107250;1249;69569;-76
2022/06/05 00:44:51;;;;;;;5.60;3.70;;;;;;;21.17;56.88;100785.69;107340;1249;63795;-74
2022/06/05 00:47:24;;;;;;;6.60;3.90;;;;;;;21.17;56.39;100782.94;107512;1250;60687;-71
2022/06/05 00:50:04;;;;;;;5.40;3.50;;;;;;;21.14;55.21;100775.67;107784;1250;59128;-73
2022/06/05 00:52:37;;;;;;;6.70;3.40;;;;;;;21.11;54.74;100769.05;107588;1249;62114;-75
2022/06/05 00:55:08;;;;;;;7.20;3.30;;;;;;;21.12;53.88;100768.95;107540;1250;71161;-74
2022/06/05 00:57:37;;;;;;;5.10;3.20;;;;;;;21.10;54.00;100770.09;107449;1250;71148;-74
2022/06/05 01:00:37;;;;;;;6.70;3.20;;;;;;;21.10;54.37;100771.82;107398;1251;73800;-75
2022/06/05 01:03:11;;;;;;;5.90;3.40;;;;;;;21.07;54.55;100769.69;107199;1251;59052;-78
2022/06/05 01:05:40;;;;;;;6.70;3.50;;;;;;;21.06;55.86;100771.46;106932;1252;60819;-72
2022/06/05 01:08:12;;;;;;;8.00;3.50;;;;;;;21.06;55.96;100771.96;107446;1251;72793;-75
2022/06/05 01:11:17;;;;;;;6.20;3.70;;;;;;;21.05;56.09;100770.80;106729;1254;71872;-75
2022/06/05 01:14:45;;;;;;;4.30;3.30;;;;;;;21.07;56.57;100767.20;106947;1253;70781;-74
2022/06/05 01:17:29;;;;;;;6.10;3.30;;;;;;;21.09;54.65;100762.39;107039;1253;63044;-75
2022/06/05 01:20:19;;;;;;;6.80;3.30;;;;;;;21.10;54.20;100751.54;106991;1251;61803;-76
2022/06/05 01:23:29;;;;;;;5.20;3.40;;;;;;;21.10;54.84;100753.96;106877;1254;61684;-72
2022/06/05 01:26:34;;;;;;;8.60;4.40;;;;;;;21.05;53.73;100751.35;106956;1253;74469;-76
2022/06/05 01:29:15;;;;;;;4.90;3.20;;;;;;;21.05;54.38;100750.73;106935;1253;63283;-77
2022/06/05 01:31:59;;;;;;;6.10;3.90;;;;;;;21.01;54.86;100748.46;106966;1254;69801;-76
2022/06/05 01:34:54;;;;;;;6.10;3.80;;;;;;;21.00;56.51;100753.05;106879;1253;74209;-76
2022/06/05 01:37:42;;;;;;;6.10;3.40;;;;;;;20.97;56.78;100754.10;106991;1251;61902;-76
2022/06/05 01:40:22;;;;;;;5.10;3.50;;;;;;;20.90;56.89;100749.08;106947;1251;61877;-73
2022/06/05 01:42:58;;;;;;;4.40;3.50;;;;;;;20.71;57.41;100747.51;107092;1251;63444;-74
2022/06/05 01:45:40;;;;;;;5.10;3.40;;;;;;;20.48;59.43;100751.42;106983;1253;60832;-74
2022/06/05 01:48:18;;;;;;;5.00;3.90;;;;;;;20.30;60.03;100761.83;107029;1252;70036;-75
2022/06/05 01:50:57;;;;;;;5.50;3.80;;;;;;;20.17;60.61;100754.61;107204;1250;74445;-73
2022/06/05 01:53:43;;;;;;;6.40;3.70;;;;;;;20.06;62.42;100743.87;107162;1251;61271;-72
2022/06/05 01:56:32;;;;;;;5.30;3.90;;;;;;;20.01;62.97;100733.46;107202;1250;59102;-76
2022/06/05 01:59:03;;;;;;;5.10;3.60;;;;;;;19.99;62.85;100729.38;107018;1251;62184;-76
2022/06/05 02:01:39;;;;;;;4.70;3.70;;;;;;;19.92;64.52;100727.81;107022;1251;61875;-72
2022/06/05 02:04:21;;;;;;;6.10;4.10;;;;;;;19.83;64.78;100722.11;106970;1251;70196;-73
2022/06/05 02:07:18;;;;;;;6.10;3.70;;;;;;;19.81;65.76;100721.23;107358;1251;62273;-73
2022/06/05 02:10:13;;;;;;;6.70;3.90;;;;;;;19.80;65.65;100720.42;107704;1251;62236;-75
2022/06/05 02:12:42;;;;;;;7.20;4.50;;;;;;;19.69;65.55;100724.20;107349;1250;60283;-75
2022/06/05 02:15:12;;;;;;;6.30;3.90;;;;;;;19.66;64.67;100734.45;107043;1251;63493;-74
2022/06/05 02:17:41;;;;;;;6.80;4.10;;;;;;;19.48;65.79;100738.54;106989;1251;72264;-71
2022/06/05 02:20:11;;;;;;;5.10;4.20;;;;;;;19.38;64.74;100737.81;107014;1251;71010;-77
2022/06/05 02:22:50;;;;;;;5.40;3.90;;;;;;;19.27;65.46;100743.94;107010;1251;72445;-70
2022/06/05 02:25:24;;;;;;;4.80;3.60;;;;;;;19.15;64.90;100741.20;107093;1251;63316;-74
2022/06/05 02:27:59;;;;;;;5.40;3.80;;;;;;;19.05;65.42;100747.36;106962;1251;60933;-74
2022/06/05 02:30:52;;;;;;;6.30;4.10;;;;;;;18.91;67.21;100749.76;107039;1250;63565;-73
2022/06/05 02:34:04;;;;;;;8.00;4.40;;;;;;;18.87;67.13;100756.23;107050;1251;72329;-74
2022/06/05 02:36:47;;;;;;;6.90;4.10;;;;;;;18.89;66.62;100760.80;106952;1251;71462;-74
2022/06/05 02:39:45;;;;;;;5.90;4.20;;;;;;;18.90;66.92;100754.56;107034;1251;73970;-73
2022/06/05 02:42:33;;;;;;;5.60;4.10;;;;;;;18.89;68.00;100743.11;107075;1251;59032;-76
2022/06/05 02:45:25;;;;;;;8.60;4.20;;;;;;;19.00;68.17;100742.06;107010;1251;59127;-73
2022/06/05 02:48:18;;;;;;;9.20;4.20;;;;;;;19.05;67.51;100748.77;107055;1250;62982;-73
2022/06/05 02:51:14;;;;;;;10.20;4.20;;;;;;;19.08;67.23;100755.93;107090;1251;71501;-73
2022/06/05 02:53:54;;;;;;;6.10;4.10;;;;;;;19.08;67.72;100765.13;106976;1251;72083;-71
2022/06/05 02:56:26;;;;;;;6.20;3.90;;;;;;;19.09;66.53;100766.05;107011;1251;62359;-72
2022/06/05 02:58:59;;;;;;;7.70;4.90;;;;;;;19.10;66.22;100769.19;107088;1251;58779;-73
2022/06/05 03:04:15;;;;;;;6.30;4.00;;;;;;;19.21;67.12;100762.27;107057;1251;74718;-75
2022/06/05 03:06:46;;;;;;;8.50;5.00;;;;;;;19.39;66.61;100763.95;107142;1250;72826;-73
2022/06/05 03:09:15;;;;;;;9.80;4.60;;;;;;;19.48;66.24;100770.61;107115;1250;62485;-74
2022/06/05 03:11:44;;;;;;;6.80;4.60;;;;;;;19.54;65.82;100778.66;107026;1251;63722;-69
2022/06/05 03:14:13;;;;;;;5.80;4.60;;;;;;;19.54;66.31;100786.61;106957;1251;58981;-76
2022/06/05 03:16:42;;;;;;;7.00;4.50;;;;;;;19.48;66.35;100791.31;107046;1251;59099;-74
2022/06/05 03:19:11;;;;;;;8.00;4.60;;;;;;;19.40;67.51;100791.98;107137;1249;73466;-74
2022/06/05 03:21:40;;;;;;;9.10;4.90;;;;;;;19.44;67.10;100794.95;107035;1250;73119;-72
2022/06/05 03:24:09;;;;;;;6.10;4.10;;;;;;;19.47;66.37;100797.17;107128;1251;71398;-76
2022/06/05 03:26:37;;;;;;;6.30;4.50;;;;;;;19.50;65.92;100791.92;107101;1253;73048;-75
2022/06/05 03:29:07;;;;;;;8.00;4.60;;;;;;;19.52;66.10;100789.28;107182;1251;59029;-74
2022/06/05 03:31:36;;;;;;;11.80;4.70;;;;;;;19.59;66.75;100790.63;107245;1250;59134;-75
2022/06/05 03:34:06;;;;;;;9.40;5.30;;;;;;;19.69;67.11;100791.86;107252;1251;73575;-75
2022/06/05 03:36:34;;;;;;;6.40;4.40;;;;;;;19.86;66.44;100792.52;107185;1251;71116;-72
2022/06/05 03:39:04;;;;;;;9.00;5.60;;;;;;;19.93;66.56;100801.11;107712;1251;70852;-72
2022/06/05 03:41:32;;;;;;;8.00;5.90;;;;;;;20.02;66.35;100799.93;107253;1251;73770;-73
2022/06/05 03:44:01;;;;;;;9.30;6.20;;;;;;;20.07;66.69;100805.64;107153;1252;59070;-73
2022/06/05 03:46:35;;;;;;;12.40;6.40;;;;;;;20.14;67.16;100806.05;107132;1251;61281;-73
2022/06/05 03:49:04;;;;;;;10.00;5.50;;;;;;;20.26;67.10;100812.05;107022;1252;62779;-73
2022/06/05 03:51:34;;;;;;;10.90;5.90;;;;;;;20.35;67.13;100816.66;107071;1250;60898;-73
2022/06/05 03:54:03;;;;;;;6.50;5.70;;;;;;;20.47;66.97;100813.60;107063;1250;70631;-74
2022/06/05 03:56:32;;;;;;;11.70;7.50;;;;;;;20.42;69.50;100814.27;106937;1251;63100;-74
2022/06/05 03:59:01;;;;;;;11.70;9.20;;;;;;;20.48;70.93;100817.52;106970;1253;59736;-74
2022/06/05 04:01:31;;;;;;;9.50;8.30;;;;;;;20.48;72.38;100818.63;107066;1250;61923;-74
2022/06/05 04:04:01;;;;;;;13.00;9.50;;;;;;;20.45;73.15;100823.56;106877;1252;75349;-73
2022/06/05 04:06:31;;;;;;;12.00;8.70;;;;;;;20.51;73.20;100822.85;107132;1251;72960;-74
2022/06/05 04:09:07;;;;;;;13.30;9.00;;;;;;;20.58;74.59;100827.61;107429;1251;70220;-73
2022/06/05 04:11:38;;;;;;;11.10;9.20;;;;;;;20.66;74.59;100825.30;107345;1250;63587;-80
2022/06/05 04:14:08;;;;;;;13.10;9.40;;;;;;;20.72;74.42;100831.48;107210;1251;58745;-75
2022/06/05 04:16:41;;;;;;;12.20;9.20;;;;;;;20.73;74.77;100836.52;107126;1252;59144;-74
2022/06/05 04:19:09;;;;;;;10.20;9.20;;;;;;;20.66;75.13;100841.16;107050;1251;62314;-75
2022/06/05 04:21:44;;;;;;;11.00;9.00;;;;;;;20.67;74.23;100838.08;107096;1251;61692;-75
2022/06/05 04:24:13;;;;;;;11.00;8.10;;;;;;;20.60;74.22;100839.16;107108;1250;70572;-73
2022/06/05 04:26:44;;;;;;;10.50;8.30;;;;;;;20.54;73.86;100838.87;107133;1250;71396;-73
2022/06/05 04:29:12;;;;;;;13.60;8.80;;;;;;;20.47;73.97;100836.55;107128;1251;62171;-71
2022/06/05 04:31:46;;;;;;;9.80;8.10;;;;;;;20.41;74.52;100840.11;107120;1251;60880;-78
2022/06/05 04:34:19;;;;;;;9.40;7.50;;;;;;;20.40;74.27;100847.05;107055;1251;75278;-73
2022/06/05 04:36:49;;;;;;;10.00;7.90;;;;;;;20.43;74.04;100844.86;107096;1250;72123;-74
2022/06/05 04:39:18;;;;;;;9.50;7.70;;;;;;;20.41;74.23;100856.89;107029;1251;71355;-76
2022/06/05 04:41:47;;;;;;;9.30;7.40;;;;;;;20.47;73.96;100855.23;107107;1250;74438;-75
2022/06/05 04:44:17;;;;;;;9.30;7.30;;;;;;;20.52;73.56;100855.48;107059;1252;59156;-74
2022/06/05 04:46:46;;;;;;;9.50;7.70;;;;;;;20.51;73.54;100857.19;107214;1251;59018;-73
2022/06/05 04:49:15;;;;;;;9.80;7.00;;;;;;;20.54;73.60;100860.55;107198;1250;63025;-74
2022/06/05 04:51:44;;;;;;;8.30;7.00;;;;;;;20.59;73.59;100851.66;107216;1249;61651;-74
2022/06/05 04:54:16;;;;;;;11.70;7.20;;;;;;;20.64;73.47;100857.29;107219;1251;70960;-77
2022/06/05 04:56:45;;;;;;;10.40;7.20;;;;;;;20.61;74.04;100860.02;107175;1251;74532;-77
2022/06/05 04:59:14;;;;;;;10.70;7.20;;;;;;;20.61;74.05;100866.50;107159;1250;62543;-76
2022/06/05 05:01:43;;;;;;;8.40;7.00;;;;;;;20.55;74.42;100869.86;107361;1251;59080;-76
2022/06/05 05:04:14;;;;;;;9.60;7.00;;;;;;;20.57;73.99;100866.11;107085;1251;73600;-74
2022/06/05 05:06:44;;;;;;;10.40;7.30;;;;;;;20.58;74.02;100864.88;107046;1251;72699;-74
2022/06/05 05:09:14;;;;;;;8.30;6.80;;;;;;;20.63;74.05;100870.41;107097;1251;60442;-75
2022/06/05 05:11:43;;;;;;;13.10;8.10;;;;;;;20.78;73.45;100867.13;107117;1251;73024;-78
2022/06/05 05:14:12;;;;;;;11.30;7.80;;;;;;;20.77;73.62;100871.98;107034;1250;63413;-78
2022/06/05 05:16:41;;;;;;;9.60;7.80;;;;;;;20.88;73.39;100866.14;107100;1251;58916;-76
2022/06/05 05:19:10;;;;;;;13.10;7.50;;;;;;;20.88;73.37;100861.48;107613;1249;63942;-72
2022/06/05 05:21:39;;;;;;;9.80;7.20;;;;;;;20.94;73.44;100853.96;107621;1251;71720;-78
2022/06/05 05:24:09;;;;;;;9.50;7.60;;;;;;;20.97;73.24;100855.33;107097;1251;69803;-77
2022/06/05 05:26:38;;;;;;;9.60;7.40;;;;;;;20.99;73.50;100857.64;107201;1251;73570;-75
2022/06/05 05:29:07;;;;;;;10.90;7.40;;;;;;;21.13;72.89;100860.41;107082;1251;61722;-65
2022/06/05 05:31:40;;;;;;;10.70;8.00;;;;;;;21.09;72.99;100863.69;107134;1251;59042;-65
2022/06/05 05:34:13;;;;;;;9.10;6.90;;;;;;;21.04;73.22;100860.52;107047;1251;63004;-63
2022/06/05 05:36:42;;;;;;;;;;;;;;;21.00;73.44;100865.08;107047;1251;61348;-68
2022/06/05 05:42:07;;;;;;;10.90;6.80;;;;;;;20.93;73.67;100868.16;107194;1251;63858;-67
2022/06/05 05:44:55;;;;;;;8.70;6.30;;;;;;;20.94;73.69;100868.09;107206;1251;62998;-67
2022/06/05 05:47:29;;;;;;;7.60;5.90;;;;;;;20.97;73.80;100874.81;107156;1251;60810;-67
2022/06/05 05:50:03;;;;;;;6.40;5.10;;;;;;;20.92;73.78;100872.56;107206;1251;73422;-67
2022/06/05 05:52:32;;;;;;;9.40;5.50;;;;;;;20.98;73.35;100872.63;107155;1249;72701;-69
2022/06/05 05:55:01;;;;;;;6.70;4.80;;;;;;;20.94;73.73;100877.96;107258;1251;69340;-70
2022/06/05 05:57:39;;;;;;;4.80;4.20;;;;;;;21.02;73.26;100876.26;107250;1250;73745;-69
2022/06/05 06:00:13;;;;;;;6.50;4.40;;;;;;;21.04;73.02;100881.78;107133;1251;63438;-69
2022/06/05 06:02:43;;;;;;;6.20;4.10;;;;;;;21.06;72.90;100880.02;107037;1251;58177;-64
2022/06/05 06:05:16;;;;;;;5.10;3.80;;;;;;;20.96;73.27;100875.11;107175;1250;72828;-68
2022/06/05 06:07:45;;;;;;;3.00;2.50;;;;;;;20.94;73.49;100874.40;107171;1251;72043;-66
2022/06/05 06:10:14;;;;;;;4.80;3.00;;;;;;;21.14;72.65;100876.38;107197;1251;59436;-67
2022/06/05 06:12:43;;;;;;;4.10;2.40;;;;;;;21.27;72.12;100874.70;107121;1251;63355;-67
2022/06/05 06:15:12;;;;;;;2.30;1.90;;;;;;;21.39;71.40;100867.73;107171;1251;58940;-66
2022/06/05 06:17:41;;;;;;;3.30;2.40;;;;;;;21.45;71.12;100875.54;107156;1249;60613;-64
2022/06/05 06:20:12;;;;;;;2.60;2.00;;;;;;;21.49;71.06;100874.02;107141;1249;74582;-66
2022/06/05 06:22:41;;;;;;;4.30;2.60;;;;;;;21.55;70.89;100874.73;107192;1250;62101;-67
2022/06/05 06:25:11;;;;;;;2.50;2.10;;;;;;;21.65;70.56;100872.14;107166;1249;69588;-69
2022/06/05 06:27:40;;;;;;;3.40;2.30;;;;;;;21.75;70.19;100878.61;107129;1251;63794;-65
2022/06/05 06:30:12;;;;;;;3.10;2.00;;;;;;;21.77;69.88;100883.91;107135;1250;61309;-68
2022/06/05 06:32:41;;;;;;;2.70;1.90;;;;;;;21.72;69.98;100877.88;107137;1249;61838;-67
2022/06/05 06:35:10;;;;;;;4.80;2.60;;;;;;;21.71;69.82;100889.56;107115;1251;74515;-65
2022/06/05 06:37:39;;;;;;;4.10;2.20;;;;;;;21.52;70.00;100892.18;107207;1250;70199;-67
2022/06/05 06:40:09;;;;;;;3.00;2.30;;;;;;;21.57;70.00;100881.02;107179;1251;70493;-69
2022/06/05 06:42:37;;;;;;;3.00;2.20;;;;;;;21.70;69.20;100885.87;107234;1251;74368;-66
2022/06/05 06:45:08;;;;;;;2.10;1.60;;;;;;;21.81;68.30;100892.02;107117;1249;62704;-68
2022/06/05 06:47:37;;;;;;;3.00;2.00;;;;;;;21.88;67.80;100883.02;107225;1250;61740;-75
2022/06/05 06:50:07;;;;;;;2.50;1.90;;;;;;;22.03;67.04;100883.80;107121;1251;63490;-66
2022/06/05 06:52:37;;;;;;;2.70;2.00;;;;;;;21.90;67.22;100888.44;107204;1251;71955;-65
2022/06/05 06:55:07;;;;;;;2.60;1.90;;;;;;;22.02;67.25;100891.77;107418;1249;70702;-69
2022/06/05 06:57:36;;;;;;;2.00;1.80;;;;;;;22.05;67.10;100895.30;107115;1251;62878;-68
2022/06/05 07:00:07;;;;;;;10.70;2.20;;;;;;;22.16;66.51;100881.17;107083;1251;62996;-64
2022/06/05 07:02:35;;;;;;;2.30;1.90;;;;;;;22.15;66.64;100895.73;107122;1251;58910;-64
2022/06/05 07:05:05;;;;;;;3.90;2.20;;;;;;;21.99;67.31;100892.95;107090;1251;74291;-64
2022/06/05 07:07:34;;;;;;;4.50;2.10;;;;;;;21.96;67.28;100898.10;107057;1250;62495;-67
2022/06/05 07:10:06;;;;;;;3.30;2.20;;;;;;;21.91;67.47;100902.73;107019;1250;68826;-65
2022/06/05 07:12:36;;;;;;;2.70;2.00;;;;;;;21.84;67.81;100907.81;107032;1251;74267;-67
2022/06/05 07:15:06;;;;;;;2.20;1.80;;;;;;;21.85;67.76;100904.19;107056;1251;59067;-68
2022/06/05 07:17:35;;;;;;;4.10;2.30;;;;;;;21.78;68.09;100906.39;107061;1250;59148;-69
2022/06/05 07:20:05;;;;;;;2.50;2.00;;;;;;;21.77;67.89;100912.20;106947;1253;63016;-68
2022/06/05 07:22:34;;;;;;;2.50;2.00;;;;;;;21.73;67.97;100918.30;107014;1251;61863;-65
2022/06/05 07:25:04;;;;;;;1.50;1.30;;;;;;;21.72;67.80;100919.89;106977;1251;70670;-67
2022/06/05 07:27:34;;;;;;;2.50;1.80;;;;;;;21.65;67.99;100909.54;107008;1251;64618;-66
2022/06/05 07:30:04;;;;;;;5.40;1.90;;;;;;;21.63;68.15;100910.48;106981;1251;62143;-67
2022/06/05 07:32:33;;;;;;;3.60;2.10;;;;;;;21.61;68.19;100915.28;107015;1249;59024;-66
2022/06/05 07:35:03;;;;;;;5.40;2.00;;;;;;;21.61;68.24;100913.02;106915;1251;72891;-68
2022/06/05 07:37:33;;;;;;;3.00;2.30;;;;;;;21.64;67.60;100915.46;107060;1249;71301;-68
2022/06/05 07:40:17;;;;;;;3.10;1.90;;;;;;;21.73;67.53;100916.62;106959;1251;71870;-67
2022/06/05 07:42:46;;;;;;;3.10;2.00;;;;;;;21.75;66.99;100920.66;107044;1251;74740;-69
2022/06/05 07:45:16;;;;;;;3.50;1.90;;;;;;;21.80;66.77;100922.88;107134;1251;61144;-69
2022/06/05 07:47:45;;;;;;;3.10;1.70;;;;;;;21.79;66.74;100924.58;107065;1251;60899;-72
2022/06/05 07:50:14;;;;;;;4.40;1.80;;;;;;;21.73;67.01;100924.20;107058;1251;62672;-66
2022/06/05 07:55:31;;;;;;;2.60;1.70;;;;;;;21.76;66.78;100921.58;107269;1249;71877;-66
2022/06/05 07:58:00;;;;;;;2.70;1.80;;;;;;;21.81;66.98;100931.36;107136;1250;73999;-68
2022/06/05 08:00:31;;;;;;;2.40;1.90;;;;;;;21.86;66.78;100927.84;107189;1251;62999;-67
2022/06/05 08:03:00;;;;;;;2.50;1.70;;;;;;;21.98;66.19;100931.04;107109;1251;59060;-69
2022/06/05 08:05:30;;;;;;;2.70;2.10;;;;;;;22.14;65.17;100931.52;107153;1250;73596;-67
2022/06/05 08:07:59;;;;;;;2.40;2.00;;;;;;;22.21;64.67;100924.55;106934;1249;72170;-72
2022/06/05 08:10:28;;;;;;;4.30;1.90;;;;;;;22.34;63.90;100934.27;107027;1254;60243;-70
2022/06/05 08:12:57;;;;;;;2.60;2.10;;;;;;;22.33;63.89;100939.80;107147;1251;63304;-67
2022/06/05 08:15:26;;;;;;;2.80;2.30;;;;;;;22.40;63.91;100942.19;107238;1249;58927;-70
2022/06/05 08:17:56;;;;;;;4.10;2.70;;;;;;;22.36;64.17;100930.26;107152;1251;58941;-69
2022/06/05 08:20:24;;;;;;;2.90;2.40;;;;;;;22.36;64.28;100943.69;107247;1249;74022;-67
2022/06/05 08:22:53;;;;;;;3.60;2.60;;;;;;;22.39;64.34;100937.50;107122;1250;73539;-69
2022/06/05 08:25:22;;;;;;;3.30;2.70;;;;;;;22.48;63.99;100931.50;107303;1251;70290;-70
2022/06/05 08:27:51;;;;;;;3.20;2.60;;;;;;;22.58;63.43;100939.30;107116;1251;74065;-66
2022/06/05 08:30:20;;;;;;;3.30;2.50;;;;;;;22.67;63.59;100940.55;107312;1249;60173;-71
2022/06/05 08:32:49;;;;;;;4.20;2.80;;;;;;;22.64;63.60;100935.90;107360;1250;57602;-79
2022/06/05 08:35:18;;;;;;;4.60;2.40;;;;;;;22.78;63.07;100946.64;107242;1252;62935;-77
2022/06/05 08:43:56;;;;;;;4.40;2.90;;;;;;;22.71;61.72;100958.52;107268;1251;63844;-72
2022/06/05 08:46:33;;;;;;;4.10;3.00;;;;;;;22.75;61.47;100958.41;107364;1251;60293;-74
2022/06/05 08:49:16;;;;;;;3.80;2.60;;;;;;;22.74;61.51;100953.52;107519;1250;60796;-71
2022/06/05 08:52:15;;;;;;;3.80;2.60;;;;;;;22.63;61.69;100954.75;107442;1249;63703;-78
2022/06/05 08:55:34;;;;;;;3.60;2.60;;;;;;;22.61;61.26;100958.33;107245;1251;61664;-74
2022/06/05 08:58:25;;;;;;;4.10;2.70;;;;;;;22.58;61.30;100951.99;107038;1250;70643;-69
2022/06/05 09:01:02;;;;;;;2.60;2.30;;;;;;;22.67;61.02;100952.30;107634;1246;73802;-76
2022/06/05 09:04:13;;;;;;;5.10;2.30;;;;;;;22.58;61.46;100964.80;107614;1246;60482;-74
2022/06/05 09:06:50;;;;;;;3.60;2.50;;;;;;;22.76;61.38;100964.02;107483;1247;58907;-75
2022/06/05 09:09:40;;;;;;;4.00;2.60;;;;;;;22.90;59.61;100960.52;107574;1246;73025;-74
2022/06/05 09:12:45;;;;;;;2.80;2.40;;;;;;;22.91;59.01;100960.39;107504;1247;61256;-76
2022/06/05 09:15:33;;;;;;;3.00;2.60;;;;;;;22.96;58.64;100950.42;107604;1247;59248;-76
2022/06/05 09:18:12;;;;;;;2.60;2.30;;;;;;;23.07;57.64;100950.02;107621;1246;73259;-75
2022/06/05 09:20:56;;;;;;;4.30;1.90;;;;;;;23.03;57.30;100942.03;107690;1246;61689;-78
2022/06/05 09:23:35;;;;;;;4.10;2.10;;;;;;;23.09;57.01;100951.86;107597;1246;57388;-78
2022/06/05 09:26:19;;;;;;;2.50;2.10;;;;;;;23.17;56.79;100939.70;107768;1246;63170;-76
2022/06/05 09:29:16;;;;;;;2.50;2.00;;;;;;;23.36;56.19;100949.91;107434;1245;72404;-78
2022/06/05 09:31:53;;;;;;;3.30;2.60;;;;;;;23.62;55.97;100936.83;107753;1246;71479;-76
2022/06/05 09:34:47;;;;;;;4.70;2.50;;;;;;;23.75;55.54;100941.39;107522;1247;74288;-74
2022/06/05 09:37:24;;;;;;;4.30;3.60;;;;;;;23.96;55.99;100948.42;107675;1247;59014;-76
2022/06/05 09:39:57;;;;;;;5.00;3.80;;;;;;;23.66;57.31;100954.40;107817;1246;58894;-74
2022/06/05 09:43:03;;;;;;;4.30;3.90;;;;;;;23.27;58.84;100954.61;107823;1247;72856;-77
2022/06/05 09:45:51;;;;;;;4.90;4.10;;;;;;;23.05;59.84;100957.75;107601;1246;71838;-74
2022/06/05 09:48:54;;;;;;;5.50;4.40;;;;;;;23.20;59.23;100950.69;107688;1246;59680;-74
2022/06/05 09:51:24;;;;;;;4.30;3.60;;;;;;;23.20;59.41;100958.70;107540;1248;63277;-72
2022/06/05 09:54:30;;;;;;;5.40;4.30;;;;;;;23.43;58.89;100963.05;107497;1247;58900;-75
2022/06/05 10:00:37;;;;;;;4.30;3.50;;;;;;;23.39;58.88;100966.14;107622;1247;62838;-73
2022/06/05 10:03:12;;;;;;;5.90;4.20;;;;;;;23.53;58.28;100958.19;107660;1246;71801;-75
2022/06/05 10:06:05;;;;;;;5.10;4.20;;;;;;;23.77;57.56;100968.33;107549;1246;69355;-76
2022/06/05 10:08:45;;;;;;;6.80;4.10;;;;;;;23.71;57.54;100952.20;107401;1247;63682;-76
2022/06/05 10:12:10;;;;;;;5.00;4.40;;;;;;;23.67;57.69;100953.44;107298;1248;59057;-77
2022/06/05 10:15:01;;;;;;;5.20;4.00;;;;;;;23.91;56.86;100964.98;106863;1246;717063;-76
2022/06/05 10:17:30;;;;;;;5.90;4.40;;;;;;;23.92;56.37;100957.42;107796;1247;72586;-75
2022/06/05 10:20:24;;;;;;;5.70;4.20;;;;;;;23.96;55.99;100956.55;107667;1247;72377;-76
2022/06/05 10:23:35;;;;;;;6.10;4.70;;;;;;;23.73;56.31;100954.95;107605;1246;70016;-79
2022/06/05 10:26:39;;;;;;;5.70;3.80;;;;;;;23.60;56.51;100960.30;107923;1245;63949;-73
2022/06/05 10:29:17;;;;;;;5.80;4.50;;;;;;;23.52;57.25;100964.73;107615;1246;61022;-73
2022/06/05 10:32:06;;;;;;;6.30;5.00;;;;;;;23.43;57.23;100978.77;107385;1246;60909;-71
2022/06/05 10:34:43;;;;;;;5.60;5.00;;;;;;;23.32;57.76;100977.95;107472;1247;63538;-73
2022/06/05 10:37:43;;;;;;;7.00;5.10;;;;;;;23.45;57.02;100975.85;107484;1246;62635;-70
2022/06/05 10:40:29;;;;;;;5.80;5.10;;;;;;;23.39;57.23;100978.86;107479;1246;69690;-72
2022/06/05 10:43:13;;;;;;;6.60;5.50;;;;;;;23.50;57.31;100972.17;107372;1246;75108;-69
2022/06/05 10:45:56;;;;;;;7.30;6.50;;;;;;;23.75;57.20;100970.77;107406;1247;58374;-71
2022/06/05 10:49:09;;;;;;;7.80;6.40;;;;;;;23.79;57.33;100971.86;107675;1245;59626;-71
2022/06/05 10:51:58;;;;;;;7.30;6.60;;;;;;;23.66;57.63;100975.73;107634;1246;63006;-73
2022/06/05 10:54:53;;;;;;;9.00;7.00;;;;;;;23.64;57.39;100978.57;107596;1247;60914;-74
2022/06/05 10:57:48;;;;;;;11.70;9.30;;;;;;;23.42;58.03;100979.46;107555;1246;59998;-74
2022/06/05 11:00:25;;;;;;;9.70;8.00;;;;;;;23.33;58.33;100981.59;107647;1246;63164;-72
2022/06/05 11:03:19;;;;;;;11.80;8.60;;;;;;;23.41;57.74;100981.10;107584;1247;58943;-72
2022/06/05 11:06:18;;;;;;;10.40;7.90;;;;;;;23.40;58.05;100984.77;107503;1246;60628;-71
2022/06/05 11:09:28;;;;;;;9.80;8.40;;;;;;;23.54;57.21;100979.23;107686;1246;63590;-70
2022/06/05 11:16:02;;;;;;;11.20;8.30;;;;;;;23.45;57.40;100977.98;107572;1246;71276;-73
2022/06/05 11:19:05;;;;;;;9.70;7.90;;;;;;;23.37;57.38;100975.77;107601;1246;63247;-75
2022/06/05 11:21:35;;;;;;;9.60;8.20;;;;;;;23.41;57.56;100975.40;107519;1247;60466;-72
2022/06/05 11:24:16;;;;;;;9.60;8.40;;;;;;;23.50;57.68;100974.67;107599;1246;60848;-73
2022/06/05 11:27:09;;;;;;;10.80;8.60;;;;;;;23.78;56.75;100983.85;107527;1247;72269;-74
2022/06/05 11:30:11;;;;;;;10.80;9.00;;;;;;;23.96;56.63;100978.27;107449;1247;72535;-72
2022/06/05 11:33:21;;;;;;;10.40;8.80;;;;;;;23.66;57.95;100987.80;107450;1248;69380;-72
2022/06/05 11:36:12;;;;;;;9.70;7.90;;;;;;;24.08;56.49;100990.05;107512;1247;63378;-70
2022/06/05 11:39:19;;;;;;;9.40;8.30;;;;;;;24.08;56.60;100989.70;107579;1246;57419;-74
2022/06/05 11:42:23;;;;;;;9.30;7.00;;;;;;;24.36;56.29;100983.02;107522;1246;61687;-73
2022/06/05 11:45:25;;;;;;;6.60;5.90;;;;;;;24.54;54.75;100995.80;107640;1246;72541;-73
2022/06/05 11:48:06;;;;;;;4.30;3.30;;;;;;;24.87;53.52;100991.90;107796;1246;60951;-74
2022/06/05 11:51:00;;;;;;;4.10;3.20;;;;;;;24.99;52.22;100987.70;107530;1246;69703;-73
2022/06/05 11:54:09;;;;;;;5.40;4.40;;;;;;;24.78;52.94;100986.30;107591;1246;74326;-77
2022/06/05 11:57:22;;;;;;;5.80;4.60;;;;;;;24.43;54.88;100989.59;107682;1246;61041;-73
2022/06/05 11:59:56;;;;;;;6.80;6.00;;;;;;;24.02;55.63;100989.93;107415;1249;58971;-75
2022/06/05 12:03:15;;;;;;;6.60;5.90;;;;;;;23.52;57.89;100989.55;107764;1246;63730;-74
2022/06/05 12:06:14;;;;;;;10.40;6.00;;;;;;;23.61;58.90;100991.36;107309;1247;72322;-72
2022/06/05 12:08:52;;;;;;;7.80;5.90;;;;;;;24.23;57.35;100991.18;107246;1248;60536;-71
2022/06/05 12:11:59;;;;;;;5.80;5.00;;;;;;;24.32;56.40;100994.98;107483;1246;74266;-74
2022/06/05 12:14:48;;;;;;;6.40;5.40;;;;;;;24.45;55.73;100990.70;107878;1246;58793;-74
2022/06/05 12:17:41;;;;;;;7.40;5.50;;;;;;;25.27;54.43;100981.27;107538;1246;61581;-74
2022/06/05 12:20:54;;;;;;;8.60;5.30;;;;;;;25.54;52.63;100975.77;107350;1246;63452;-73
2022/06/05 12:23:29;;;;;;;6.70;5.00;;;;;;;25.20;52.98;100978.05;107391;1247;71395;-77
2022/06/05 12:26:33;;;;;;;6.50;4.60;;;;;;;25.05;53.41;100973.91;107587;1246;70729;-76
2022/06/05 12:29:35;;;;;;;5.30;4.80;;;;;;;24.89;54.12;100974.32;107366;1247;73471;-71
2022/06/05 12:32:16;;;;;;;6.30;5.00;;;;;;;24.73;53.68;100974.06;107540;1246;61622;-70
2022/06/05 12:34:57;;;;;;;5.40;4.50;;;;;;;24.54;53.96;100966.07;107551;1246;60456;-73